Time;durP1;ratioP1;P1;durP2;ratioP2;P2;SDS_P1;SDS_P2;PMS_P1;PMS_P2;Temp;Humidity;BMP_temperature;BMP_pressure;BME280_temperature;BME280_humidity;BME280_pressure;Samples;Min_cycle;Max_cycle;Signal;HPM_P1;HPM_P2
2023/03/24 00:02:09;;;;;;;3.40;1.65;;;;;;;12.21;87.03;98408.84;5058241;28;20053;-90
2023/03/24 00:04:35;;;;;;;4.13;1.65;;;;;;;12.06;87.64;98404.53;5059021;28;20758;-86
2023/03/24 00:07:02;;;;;;;6.30;1.50;;;;;;;12.07;88.01;98403.41;5055009;28;20119;-87
2023/03/24 00:09:31;;;;;;;4.43;1.60;;;;;;;12.16;87.49;98393.41;5057405;28;20782;-88
2023/03/24 00:11:57;;;;;;;5.05;1.55;;;;;;;12.12;87.96;98395.13;5058806;28;20039;-87
2023/03/24 00:14:23;;;;;;;4.45;1.80;;;;;;;12.08;88.29;98391.38;5057824;28;20029;-86
2023/03/24 00:16:49;;;;;;;8.88;1.85;;;;;;;12.09;87.97;98392.97;5056802;28;20221;-86
2023/03/24 00:19:15;;;;;;;3.58;1.42;;;;;;;12.11;87.75;98380.66;5056047;28;20039;-87
2023/03/24 00:21:42;;;;;;;5.32;1.67;;;;;;;11.94;89.06;98370.34;5057685;28;20041;-87
2023/03/24 00:24:08;;;;;;;3.47;1.33;;;;;;;12.00;89.68;98382.78;5057394;28;20032;-87
2023/03/24 00:26:36;;;;;;;5.72;1.88;;;;;;;11.95;89.10;98372.00;5058759;28;20065;-88
2023/03/24 00:29:03;;;;;;;3.33;1.30;;;;;;;12.01;89.11;98368.03;5055175;28;20049;-87
2023/03/24 00:31:29;;;;;;;4.13;1.30;;;;;;;11.95;88.79;98357.53;5057113;28;20032;-89
2023/03/24 00:33:55;;;;;;;3.08;1.63;;;;;;;11.96;89.29;98367.34;5037195;28;20078;-87
2023/03/24 00:36:23;;;;;;;3.60;1.30;;;;;;;11.96;89.50;98357.19;5057146;28;20445;-90
2023/03/24 00:38:49;;;;;;;2.58;1.15;;;;;;;11.96;89.47;98354.47;5055440;28;20090;-88
2023/03/24 00:41:18;;;;;;;6.32;1.85;;;;;;;11.96;89.08;98359.16;5038462;28;20047;-88
2023/03/24 00:43:48;;;;;;;5.30;0.98;;;;;;;12.05;88.91;98356.47;5055292;28;20029;-87
2023/03/24 00:46:26;;;;;;;8.80;1.77;;;;;;;12.09;88.86;98343.81;5052475;28;20055;-88
2023/03/24 00:48:56;;;;;;;3.80;1.48;;;;;;;12.12;88.45;98344.03;5055344;28;20151;-88
2023/03/24 00:51:22;;;;;;;4.70;1.92;;;;;;;12.09;88.87;98332.88;5054637;28;20036;-88
2023/03/24 00:53:47;;;;;;;3.33;1.48;;;;;;;12.13;88.91;98333.91;5053496;28;20025;-88
2023/03/24 00:56:14;;;;;;;4.43;1.33;;;;;;;12.13;88.50;98329.25;5056146;28;20512;-88
2023/03/24 00:58:39;;;;;;;4.00;1.10;;;;;;;12.11;89.14;98323.28;5054563;28;20340;-89
2023/03/24 01:01:05;;;;;;;4.28;1.83;;;;;;;12.13;88.83;98312.06;5055329;28;20123;-89
2023/03/24 01:03:33;;;;;;;2.70;1.38;;;;;;;12.11;89.01;98308.81;5038060;28;20712;-88
2023/03/24 01:06:03;;;;;;;4.75;1.58;;;;;;;12.15;89.01;98307.09;5053684;28;20032;-89
2023/03/24 01:08:29;;;;;;;3.75;1.92;;;;;;;12.20;88.93;98290.59;5052747;28;20032;-89
2023/03/24 01:10:54;;;;;;;3.55;1.38;;;;;;;12.20;88.78;98290.59;5050051;28;20199;-90
2023/03/24 01:13:28;;;;;;;3.80;1.15;;;;;;;12.16;89.10;98284.13;5052272;28;20183;-91
2023/03/24 01:15:54;;;;;;;4.63;1.58;;;;;;;12.18;89.06;98286.53;5050931;28;20155;-90
2023/03/24 01:18:22;;;;;;;3.05;1.20;;;;;;;12.17;89.07;98302.13;5047710;28;20029;-90
2023/03/24 01:20:52;;;;;;;4.13;1.70;;;;;;;12.19;89.07;98293.59;5050016;28;20028;-89
2023/03/24 01:23:23;;;;;;;2.92;1.27;;;;;;;12.21;89.37;98286.72;5049223;28;20466;-87
2023/03/24 01:25:49;;;;;;;3.15;1.90;;;;;;;12.12;89.44;98294.84;5056130;28;20033;-90
2023/03/24 01:28:17;;;;;;;3.65;1.60;;;;;;;12.13;89.63;98298.41;5053659;28;20039;-89
2023/03/24 01:30:42;;;;;;;4.50;2.03;;;;;;;12.14;89.81;98291.84;5055758;28;20025;-88
2023/03/24 01:33:08;;;;;;;3.40;1.95;;;;;;;12.22;89.86;98288.34;5055889;28;20025;-88
2023/03/24 01:35:34;;;;;;;3.40;1.42;;;;;;;12.14;90.15;98297.28;5054531;28;20033;-89
2023/03/24 01:37:59;;;;;;;4.18;2.17;;;;;;;12.07;90.46;98292.22;5054926;28;20416;-86
2023/03/24 01:40:31;;;;;;;5.07;2.20;;;;;;;12.18;90.32;98292.81;5054946;28;20040;-89
2023/03/24 01:42:57;;;;;;;5.10;2.20;;;;;;;12.18;90.15;98300.19;5056225;28;20131;-89
2023/03/24 01:45:38;;;;;;;4.43;2.17;;;;;;;12.24;89.88;98283.34;5055244;28;20482;-89
2023/03/24 01:48:07;;;;;;;3.22;1.35;;;;;;;12.25;89.58;98265.03;5055369;28;20045;-89
2023/03/24 01:50:33;;;;;;;3.65;1.35;;;;;;;12.24;89.85;98272.41;5056639;28;20473;-89
2023/03/24 01:53:00;;;;;;;4.20;2.20;;;;;;;12.22;89.78;98260.22;5056594;28;20036;-88
2023/03/24 01:55:26;;;;;;;4.43;1.98;;;;;;;12.24;89.90;98253.28;5054552;28;20031;-89
2023/03/24 01:57:57;;;;;;;4.38;2.08;;;;;;;12.21;90.11;98247.66;5054840;28;20029;-89
2023/03/24 02:00:23;;;;;;;4.15;2.05;;;;;;;12.23;89.76;98238.03;5055167;28;20052;-81
2023/03/24 02:02:57;;;;;;;4.95;2.42;;;;;;;12.27;89.68;98224.53;5054081;28;20043;-82
2023/03/24 02:05:28;;;;;;;3.22;1.73;;;;;;;12.18;89.68;98216.31;5054922;28;20653;-81
2023/03/24 02:08:23;;;;;;;2.97;1.27;;;;;;;12.21;89.71;98218.41;5053273;28;20183;-82
2023/03/24 02:10:51;;;;;;;4.10;2.00;;;;;;;12.09;90.72;98213.50;5052672;28;20033;-81
2023/03/24 02:13:16;;;;;;;4.60;1.38;;;;;;;12.12;90.92;98214.84;5054731;28;20052;-81
2023/03/24 02:15:59;;;;;;;5.50;2.60;;;;;;;12.17;90.51;98195.56;5053421;28;20533;-82
2023/03/24 02:18:32;;;;;;;5.82;1.90;;;;;;;12.17;90.53;98194.75;5054213;28;20314;-82
2023/03/24 02:21:25;;;;;;;4.10;1.98;;;;;;;12.18;90.44;98189.00;5053357;28;20078;-82
2023/03/24 02:24:12;;;;;;;3.30;1.98;;;;;;;12.05;91.31;98189.84;5052364;28;20037;-81
2023/03/24 02:26:44;;;;;;;6.85;2.67;;;;;;;12.02;91.57;98175.69;5052790;28;20032;-83
2023/03/24 02:29:34;;;;;;;4.25;1.95;;;;;;;12.08;92.19;98170.13;5051953;28;20500;-82
2023/03/24 02:32:28;;;;;;;3.63;1.75;;;;;;;12.04;92.35;98183.56;5051141;28;20111;-81
2023/03/24 02:35:32;;;;;;;5.90;2.50;;;;;;;12.01;92.49;98167.84;5051442;28;20029;-81
2023/03/24 02:38:25;;;;;;;4.17;1.67;;;;;;;12.09;92.80;98156.16;5050625;28;20485;-81
2023/03/24 02:41:11;;;;;;;2.45;1.27;;;;;;;12.16;92.23;98152.19;5028719;28;20457;-82
2023/03/24 02:43:42;;;;;;;4.10;1.77;;;;;;;12.20;92.15;98151.25;5053385;28;20036;-82
2023/03/24 02:46:36;;;;;;;5.90;1.90;;;;;;;12.21;92.04;98152.84;5054545;28;20067;-83
2023/03/24 02:49:46;;;;;;;5.28;2.92;;;;;;;12.19;91.94;98146.88;5053304;28;20701;-82
2023/03/24 02:52:21;;;;;;;3.60;1.98;;;;;;;12.22;92.39;98140.00;4984261;28;20049;-83
2023/03/24 02:55:06;;;;;;;6.30;1.83;;;;;;;12.30;91.90;98135.69;5042248;28;20040;-82
2023/03/24 02:57:42;;;;;;;6.22;2.78;;;;;;;12.33;91.51;98140.50;5055074;28;20033;-81
2023/03/24 03:00:21;;;;;;;5.88;2.67;;;;;;;12.30;91.74;98136.50;5053955;28;20028;-82
2023/03/24 03:02:54;;;;;;;8.40;2.97;;;;;;;12.39;91.03;98141.97;5036772;28;20056;-81
2023/03/24 03:05:38;;;;;;;5.07;2.10;;;;;;;12.32;91.54;98127.97;5039659;28;20108;-82
2023/03/24 03:08:08;;;;;;;9.70;3.05;;;;;;;12.31;91.62;98126.34;5041262;28;20083;-82
2023/03/24 03:10:37;;;;;;;5.00;2.33;;;;;;;12.31;91.67;98129.09;5038969;28;20122;-84
2023/03/24 03:13:08;;;;;;;4.88;2.50;;;;;;;12.32;91.57;98130.72;5036569;28;20041;-82
2023/03/24 03:15:38;;;;;;;4.15;1.90;;;;;;;12.31;91.75;98123.63;5039703;28;20043;-82
2023/03/24 03:18:11;;;;;;;4.88;2.33;;;;;;;12.33;91.53;98114.00;5036559;28;20041;-82
2023/03/24 03:20:49;;;;;;;4.43;2.75;;;;;;;12.24;91.87;98113.94;5037829;28;20762;-81
2023/03/24 03:23:20;;;;;;;7.50;3.25;;;;;;;12.24;91.74;98102.25;5020943;28;20033;-89
2023/03/24 03:25:50;;;;;;;6.80;2.63;;;;;;;12.31;91.17;98097.09;5039875;28;20025;-90
2023/03/24 03:28:20;;;;;;;4.90;2.47;;;;;;;12.26;91.67;98116.38;5037857;28;20199;-89
2023/03/24 03:30:52;;;;;;;4.30;1.73;;;;;;;12.24;92.12;98111.22;5038433;28;20428;-89
2023/03/24 03:33:23;;;;;;;4.75;2.72;;;;;;;12.20;91.85;98121.19;5039474;28;20034;-89
2023/03/24 03:35:58;;;;;;;5.72;3.00;;;;;;;12.30;91.42;98120.09;5039562;28;20030;-89
2023/03/24 03:38:31;;;;;;;4.82;2.60;;;;;;;12.31;91.50;98126.34;5038199;28;20033;-89
2023/03/24 03:41:01;;;;;;;5.22;2.50;;;;;;;12.23;91.53;98120.56;5038449;28;20462;-89
2023/03/24 03:43:29;;;;;;;5.32;3.05;;;;;;;12.26;92.00;98119.91;5039374;28;20053;-89
2023/03/24 03:45:54;;;;;;;7.82;2.67;;;;;;;12.28;91.97;98116.06;5041453;28;20043;-89
2023/03/24 03:48:20;;;;;;;7.47;2.35;;;;;;;12.25;92.35;98112.03;5039057;28;20029;-88
2023/03/24 03:50:46;;;;;;;4.93;2.92;;;;;;;12.32;92.05;98122.50;5039790;28;20147;-89
2023/03/24 03:53:18;;;;;;;5.63;2.92;;;;;;;12.25;92.24;98118.31;5039151;28;20033;-89
2023/03/24 03:55:44;;;;;;;6.60;3.05;;;;;;;12.25;93.03;98120.22;5039409;28;20029;-89
2023/03/24 03:58:09;;;;;;;4.55;2.38;;;;;;;12.35;92.80;98122.69;5037850;28;20034;-89
2023/03/24 04:00:35;;;;;;;6.88;2.83;;;;;;;12.28;93.24;98124.25;5042298;28;20056;-89
2023/03/24 04:03:29;;;;;;;5.13;2.55;;;;;;;12.30;93.80;98130.22;5046979;28;20193;-88
2023/03/24 04:06:02;;;;;;;6.60;3.20;;;;;;;12.30;94.17;98119.28;5049792;28;20048;-89
2023/03/24 04:08:28;;;;;;;;;;;;;;;12.23;94.09;98126.00;5048990;28;20153;-89
2023/03/24 04:11:24;;;;;;;4.18;2.40;;;;;;;12.16;94.85;98133.06;5049078;28;20357;-89
2023/03/24 04:14:13;;;;;;;5.80;2.65;;;;;;;12.09;95.63;98142.47;5048410;28;20044;-89
2023/03/24 04:16:52;;;;;;;6.78;2.97;;;;;;;12.05;96.66;98135.22;5048616;28;20548;-90
2023/03/24 04:19:54;;;;;;;5.47;2.90;;;;;;;12.18;96.16;98136.28;5046921;28;20051;-89
2023/03/24 04:22:37;;;;;;;7.53;3.15;;;;;;;12.16;96.16;98136.59;5031504;28;20033;-90
2023/03/24 04:25:39;;;;;;;8.85;3.08;;;;;;;12.19;96.51;98130.50;5047864;28;20036;-89
2023/03/24 04:28:19;;;;;;;5.40;2.65;;;;;;;12.26;96.23;98136.31;5045573;28;20052;-90
2023/03/24 04:31:25;;;;;;;6.63;3.42;;;;;;;12.24;96.00;98132.28;5048187;28;20082;-89
2023/03/24 04:34:04;;;;;;;5.55;2.83;;;;;;;12.27;95.72;98142.56;5048254;28;21007;-89
2023/03/24 04:36:41;;;;;;;5.75;3.00;;;;;;;12.17;96.45;98154.59;5030367;28;20124;-89
2023/03/24 04:39:10;;;;;;;5.97;2.80;;;;;;;12.28;96.53;98155.13;5047453;28;20033;-89
2023/03/24 04:41:36;;;;;;;6.45;2.83;;;;;;;12.33;95.73;98163.19;5048313;28;20311;-88
2023/03/24 04:44:02;;;;;;;6.70;2.78;;;;;;;12.30;96.32;98173.94;5048625;28;20037;-89
2023/03/24 04:46:29;;;;;;;6.55;3.35;;;;;;;12.41;95.40;98188.13;5031708;28;20119;-89
2023/03/24 04:48:54;;;;;;;4.30;2.50;;;;;;;12.31;96.56;98183.72;5046700;28;20032;-89
2023/03/24 04:51:20;;;;;;;11.90;3.92;;;;;;;12.32;96.26;98171.69;5049013;28;20029;-87
2023/03/24 04:53:46;;;;;;;5.10;2.45;;;;;;;12.03;98.12;98184.72;5047201;28;20040;-88
2023/03/24 04:56:23;;;;;;;7.82;2.80;;;;;;;12.17;98.03;98192.03;5047832;28;20040;-88
2023/03/24 04:58:49;;;;;;;4.50;2.58;;;;;;;12.07;98.18;98198.53;5046672;28;20028;-89
2023/03/24 05:01:15;;;;;;;5.22;2.53;;;;;;;12.05;98.41;98195.31;5048100;28;20044;-88
2023/03/24 05:03:41;;;;;;;4.80;2.67;;;;;;;12.01;97.06;98215.06;5048704;28;20037;-90
2023/03/24 05:06:07;;;;;;;3.37;1.93;;;;;;;11.90;96.51;98208.25;5047424;28;20035;-89
2023/03/24 05:08:32;;;;;;;4.93;1.58;;;;;;;11.96;97.09;98209.72;5046823;28;20353;-89
2023/03/24 05:10:57;;;;;;;2.92;1.20;;;;;;;12.03;95.79;98215.56;5047680;28;20537;-89
2023/03/24 05:13:23;;;;;;;7.97;2.40;;;;;;;12.16;95.11;98215.84;5048689;28;20404;-89
2023/03/24 05:15:48;;;;;;;3.17;1.55;;;;;;;12.00;95.10;98232.56;5047611;28;20278;-89
2023/03/24 05:18:13;;;;;;;5.20;1.85;;;;;;;11.89;94.22;98225.75;5047192;28;20119;-89
2023/03/24 05:20:39;;;;;;;3.90;1.55;;;;;;;12.05;94.19;98236.28;5046971;28;20036;-89
2023/03/24 05:23:04;;;;;;;2.72;1.58;;;;;;;11.90;93.65;98247.28;5047168;28;20029;-89
2023/03/24 05:25:29;;;;;;;4.78;1.92;;;;;;;12.09;93.15;98242.75;5046057;28;20585;-88
2023/03/24 05:27:55;;;;;;;4.65;2.22;;;;;;;12.00;93.09;98248.94;5046329;28;20057;-89
2023/03/24 05:30:20;;;;;;;4.80;1.80;;;;;;;11.68;93.21;98259.00;5046139;28;20048;-88
2023/03/24 05:32:46;;;;;;;4.07;2.05;;;;;;;11.78;93.99;98257.94;5047749;28;20029;-89
2023/03/24 05:35:11;;;;;;;5.85;1.90;;;;;;;11.69;92.96;98271.56;5047129;28;20071;-89
2023/03/24 05:37:36;;;;;;;3.73;2.10;;;;;;;11.74;93.08;98273.34;5029456;28;20048;-89
2023/03/24 05:40:02;;;;;;;4.80;2.30;;;;;;;11.68;92.57;98289.84;5047343;28;20266;-89
2023/03/24 05:42:27;;;;;;;1.90;1.17;;;;;;;11.68;91.78;98287.13;5047975;28;20277;-88
2023/03/24 05:44:52;;;;;;;6.85;2.30;;;;;;;11.71;91.21;98299.34;5047928;28;20082;-90
2023/03/24 05:47:19;;;;;;;3.45;1.17;;;;;;;11.65;91.61;98319.69;5047610;28;20048;-89
2023/03/24 05:49:47;;;;;;;3.42;1.60;;;;;;;11.53;91.08;98334.66;5045678;28;20480;-89
2023/03/24 05:52:15;;;;;;;3.50;1.83;;;;;;;11.58;91.49;98341.13;5030486;28;20029;-90
2023/03/24 05:54:41;;;;;;;4.22;1.50;;;;;;;11.79;90.57;98346.97;5047051;28;20039;-90
2023/03/24 05:57:10;;;;;;;4.80;1.38;;;;;;;11.59;90.55;98345.47;5047205;28;20037;-89
2023/03/24 05:59:36;;;;;;;3.15;1.80;;;;;;;11.55;90.20;98354.28;5047000;28;20020;-89
2023/03/24 06:02:02;;;;;;;3.72;2.20;;;;;;;11.37;90.21;98355.22;5028949;28;20041;-89
2023/03/24 06:04:29;;;;;;;4.20;1.75;;;;;;;11.38;90.92;98371.28;5046624;28;20040;-89
2023/03/24 06:07:01;;;;;;;3.25;1.67;;;;;;;11.31;90.96;98366.22;5045905;28;20053;-89
2023/03/24 06:09:28;;;;;;;4.63;1.80;;;;;;;11.23;90.38;98377.06;5045042;28;20037;-86
2023/03/24 06:11:54;;;;;;;4.53;2.85;;;;;;;11.55;91.09;98375.31;5045340;28;20727;-87
2023/03/24 06:14:20;;;;;;;4.57;1.50;;;;;;;11.51;88.46;98369.63;5046431;28;20087;-87
2023/03/24 06:16:48;;;;;;;5.80;1.40;;;;;;;11.41;87.64;98383.53;5046749;28;20033;-87
2023/03/24 06:19:14;;;;;;;2.65;1.50;;;;;;;11.45;87.12;98398.19;5044401;28;20293;-87
2023/03/24 06:21:39;;;;;;;4.43;1.05;;;;;;;11.24;85.91;98403.22;5046586;28;20449;-87
2023/03/24 06:24:05;;;;;;;5.45;1.80;;;;;;;11.10;87.56;98404.03;5046833;28;20064;-87
2023/03/24 06:26:30;;;;;;;9.48;1.90;;;;;;;11.09;87.63;98414.13;5046539;28;20037;-87
2023/03/24 06:28:57;;;;;;;11.07;2.47;;;;;;;10.90;87.38;98416.13;5045234;28;20048;-86
2023/03/24 06:31:22;;;;;;;4.47;1.80;;;;;;;10.94;87.40;98406.22;5045976;28;20249;-87
2023/03/24 06:33:49;;;;;;;3.97;1.65;;;;;;;11.09;86.68;98405.94;5046155;28;20028;-87
2023/03/24 06:36:15;;;;;;;7.13;2.08;;;;;;;11.00;86.27;98409.66;5046433;28;20498;-87
2023/03/24 06:38:41;;;;;;;9.20;2.58;;;;;;;11.14;86.58;98412.41;5044836;28;20059;-87
2023/03/24 06:41:06;;;;;;;4.10;2.08;;;;;;;11.06;85.46;98424.81;5046542;28;20187;-86
2023/03/24 06:43:32;;;;;;;7.00;2.08;;;;;;;11.25;84.97;98422.00;5046634;28;20084;-86
2023/03/24 06:45:57;;;;;;;5.00;1.55;;;;;;;11.21;85.15;98421.81;5046449;28;20067;-86
2023/03/24 06:48:23;;;;;;;7.53;2.92;;;;;;;11.21;84.49;98423.72;5043443;28;20138;-87
2023/03/24 06:50:50;;;;;;;5.25;1.92;;;;;;;11.20;85.13;98444.75;5045836;28;20063;-86
2023/03/24 06:53:16;;;;;;;4.80;1.67;;;;;;;11.38;86.05;98452.31;5044525;28;20029;-87
2023/03/24 06:55:41;;;;;;;6.27;2.40;;;;;;;11.65;84.84;98450.72;5052400;28;20501;-87
2023/03/24 06:58:06;;;;;;;4.00;2.30;;;;;;;11.64;83.94;98449.09;5040388;28;20327;-88
2023/03/24 07:00:33;;;;;;;7.43;1.97;;;;;;;11.34;82.36;98452.13;5045362;28;20305;-87
2023/03/24 07:03:01;;;;;;;7.63;2.13;;;;;;;11.00;82.29;98451.38;5027257;28;21020;-88
2023/03/24 07:05:26;;;;;;;7.35;1.45;;;;;;;10.81;82.83;98457.69;5042814;28;20029;-87
2023/03/24 07:07:51;;;;;;;6.32;1.08;;;;;;;10.71;81.34;98455.13;5045314;28;20029;-88
2023/03/24 07:10:18;;;;;;;3.75;1.20;;;;;;;10.93;81.26;98453.69;5044762;28;20029;-88
2023/03/24 07:12:44;;;;;;;2.40;1.00;;;;;;;10.85;80.12;98453.25;5040788;28;20017;-88
2023/03/24 07:15:09;;;;;;;7.82;1.88;;;;;;;10.71;80.72;98452.41;5036022;28;20374;-87
2023/03/24 07:17:35;;;;;;;6.68;2.05;;;;;;;10.79;79.29;98453.63;5040458;28;20071;-87
2023/03/24 07:20:00;;;;;;;10.80;1.75;;;;;;;10.73;79.38;98478.28;5024494;28;20060;-87
2023/03/24 07:22:25;;;;;;;4.40;1.33;;;;;;;10.71;79.44;98479.66;5042396;28;20025;-87
2023/03/24 07:24:51;;;;;;;13.00;1.40;;;;;;;11.07;79.38;98476.34;5044984;28;20021;-87
2023/03/24 07:27:17;;;;;;;4.43;0.95;;;;;;;11.03;79.31;98478.03;5045882;28;20414;-86
2023/03/24 07:29:42;;;;;;;6.45;1.30;;;;;;;10.98;79.37;98478.94;5027514;28;20056;-85
2023/03/24 07:32:08;;;;;;;7.83;1.43;;;;;;;10.99;78.95;98487.94;5043726;28;20033;-87
2023/03/24 07:34:35;;;;;;;7.00;1.88;;;;;;;10.98;78.87;98486.31;5046515;28;20611;-87
2023/03/24 07:37:01;;;;;;;7.95;1.65;;;;;;;10.70;78.15;98484.31;5045500;28;20605;-87
2023/03/24 07:39:26;;;;;;;4.75;2.28;;;;;;;11.04;78.43;98487.84;5044111;28;20024;-86
2023/03/24 07:41:52;;;;;;;8.00;1.48;;;;;;;11.06;78.39;98485.66;5045422;28;20025;-87
2023/03/24 07:44:17;;;;;;;7.15;1.27;;;;;;;11.17;77.67;98483.53;5043004;28;20032;-86
2023/03/24 07:46:42;;;;;;;8.75;2.17;;;;;;;11.29;78.15;98485.75;5047082;28;20115;-84
2023/03/24 07:49:08;;;;;;;9.10;1.60;;;;;;;11.29;77.07;98488.50;5047270;28;20037;-83
2023/03/24 07:51:33;;;;;;;8.93;1.55;;;;;;;11.07;76.30;98481.78;5050100;28;20254;-82
2023/03/24 07:53:58;;;;;;;4.40;1.60;;;;;;;11.13;77.59;98487.97;5049466;28;20485;-85
2023/03/24 07:56:24;;;;;;;4.20;1.13;;;;;;;11.34;77.67;98501.25;5049386;28;20250;-85
2023/03/24 07:58:49;;;;;;;5.35;1.30;;;;;;;11.37;76.62;98502.56;5048337;28;20246;-85
2023/03/24 08:01:15;;;;;;;4.20;1.30;;;;;;;11.25;76.53;98509.31;5048726;28;20059;-83
2023/03/24 08:03:40;;;;;;;5.28;1.50;;;;;;;11.08;77.16;98507.16;5049277;28;20036;-84
2023/03/24 08:06:07;;;;;;;6.50;1.65;;;;;;;11.35;77.32;98512.97;5031341;28;20064;-84
2023/03/24 08:08:33;;;;;;;6.38;1.52;;;;;;;11.32;76.17;98515.19;5045645;28;20080;-83
2023/03/24 08:10:59;;;;;;;3.92;1.00;;;;;;;11.19;76.34;98515.97;5041320;28;20106;-83
2023/03/24 08:13:25;;;;;;;5.25;1.75;;;;;;;11.66;76.61;98518.66;5043733;28;20048;-83
2023/03/24 08:15:52;;;;;;;8.57;5.15;;;;;;;11.82;75.77;98525.75;5046469;28;20056;-85
2023/03/24 08:18:19;;;;;;;7.82;0.93;;;;;;;11.70;75.96;98521.59;5046705;28;20044;-83
2023/03/24 08:20:45;;;;;;;6.65;2.55;;;;;;;11.85;75.37;98515.03;5031315;28;20124;-86
2023/03/24 08:23:10;;;;;;;4.90;1.13;;;;;;;11.81;75.20;98513.19;5048328;28;20167;-83
2023/03/24 08:25:36;;;;;;;7.73;1.47;;;;;;;11.69;74.88;98514.53;5047637;28;20025;-86
2023/03/24 08:28:01;;;;;;;7.05;1.58;;;;;;;11.81;75.14;98516.75;5046631;28;20270;-81
2023/03/24 08:30:27;;;;;;;5.18;1.20;;;;;;;11.67;73.90;98506.63;5047823;28;20027;-80
2023/03/24 08:32:58;;;;;;;7.45;1.48;;;;;;;11.88;74.44;98516.31;5047138;28;20047;-82
2023/03/24 08:35:32;;;;;;;8.15;1.90;;;;;;;11.89;73.77;98520.69;5047715;28;20033;-82
2023/03/24 08:38:00;;;;;;;;;;;;;;;12.09;73.41;98513.19;5041475;28;20746;-83
2023/03/24 08:40:28;;;;;;;7.10;1.20;;;;;;;12.09;73.36;98519.47;5044220;28;19928;-83
2023/03/24 08:43:07;;;;;;;6.18;1.23;;;;;;;12.05;72.84;98518.44;5042439;28;20037;-83
2023/03/24 08:45:32;;;;;;;8.80;1.98;;;;;;;12.33;71.84;98506.69;5044896;28;20760;-80
2023/03/24 08:48:00;;;;;;;8.73;2.55;;;;;;;12.25;72.68;98528.16;5043762;28;20055;-82
2023/03/24 08:50:31;;;;;;;10.80;2.45;;;;;;;12.40;70.97;98517.19;5044829;28;20043;-83
2023/03/24 08:52:56;;;;;;;7.72;1.27;;;;;;;12.32;70.98;98516.81;5043683;28;20037;-85
2023/03/24 08:55:23;;;;;;;10.07;2.63;;;;;;;12.59;71.94;98530.72;5046724;28;20480;-84
2023/03/24 08:57:49;;;;;;;6.45;1.70;;;;;;;12.53;70.79;98534.69;5045914;28;20044;-84
2023/03/24 09:00:17;;;;;;;7.10;1.98;;;;;;;12.59;70.05;98536.19;5031405;28;20044;-86
2023/03/24 09:02:44;;;;;;;8.52;2.03;;;;;;;12.46;69.55;98527.72;5048234;28;20315;-81
2023/03/24 09:05:10;;;;;;;13.10;2.05;;;;;;;12.54;70.74;98528.09;5048567;28;20028;-86
2023/03/24 09:07:36;;;;;;;7.72;3.88;;;;;;;12.43;69.90;98522.84;5046769;28;20068;-83
2023/03/24 09:10:03;;;;;;;8.98;2.10;;;;;;;12.36;70.17;98527.94;5047048;28;20143;-82
2023/03/24 09:12:29;;;;;;;11.90;2.83;;;;;;;12.55;69.98;98530.50;5046827;28;20040;-81
2023/03/24 09:14:54;;;;;;;5.32;1.50;;;;;;;12.58;70.80;98534.56;5047607;28;20044;-87
2023/03/24 09:17:20;;;;;;;7.18;1.63;;;;;;;12.28;70.24;98550.53;5048139;28;20426;-83
2023/03/24 09:19:46;;;;;;;6.47;2.30;;;;;;;12.62;70.90;98546.50;5046661;28;20397;-84
2023/03/24 09:22:11;;;;;;;10.63;2.50;;;;;;;12.80;70.59;98549.38;5046803;28;20053;-86
2023/03/24 09:24:37;;;;;;;9.18;2.67;;;;;;;12.71;69.90;98541.13;5045050;28;20467;-86
2023/03/24 09:27:02;;;;;;;12.95;2.90;;;;;;;12.95;69.23;98548.22;5047141;28;20049;-84
2023/03/24 09:29:28;;;;;;;6.65;2.20;;;;;;;12.88;69.38;98548.63;5048016;28;20040;-85
2023/03/24 09:31:55;;;;;;;9.13;2.65;;;;;;;13.26;69.28;98552.91;5046619;28;20124;-84
2023/03/24 09:34:21;;;;;;;3.83;2.00;;;;;;;13.31;67.71;98554.72;5048068;28;20044;-85
2023/03/24 09:36:47;;;;;;;11.48;3.42;;;;;;;13.43;68.24;98554.13;5048120;28;20037;-83
2023/03/24 09:39:12;;;;;;;9.38;2.58;;;;;;;13.46;68.43;98550.78;5046800;28;20036;-84
2023/03/24 09:41:38;;;;;;;8.43;2.53;;;;;;;13.65;67.30;98553.31;5044874;28;20052;-84
2023/03/24 09:44:16;;;;;;;10.68;2.20;;;;;;;13.40;67.04;98543.84;5047984;28;20258;-85
2023/03/24 09:46:53;;;;;;;7.55;2.17;;;;;;;13.48;67.03;98558.69;5047757;28;20469;-85
2023/03/24 09:49:25;;;;;;;5.03;1.58;;;;;;;13.30;65.66;98555.84;5043439;28;20143;-85
2023/03/24 09:51:55;;;;;;;6.05;2.45;;;;;;;13.29;66.31;98559.69;5045366;28;20075;-84
2023/03/24 09:54:27;;;;;;;5.35;1.63;;;;;;;13.36;66.54;98557.34;5045791;28;20041;-84
2023/03/24 09:56:54;;;;;;;9.13;2.60;;;;;;;13.49;67.15;98565.75;5045515;28;20048;-84
2023/03/24 09:59:38;;;;;;;7.35;2.25;;;;;;;13.55;66.26;98553.59;5045548;28;20033;-84
2023/03/24 10:02:17;;;;;;;8.77;1.90;;;;;;;13.25;64.04;98561.44;5053855;28;20102;-85
2023/03/24 10:04:42;;;;;;;5.35;1.23;;;;;;;12.90;64.67;98567.47;5038130;28;20028;-86
2023/03/24 10:07:21;;;;;;;21.92;4.65;;;;;;;13.05;66.15;98572.59;5056772;28;20048;-85
2023/03/24 10:09:51;;;;;;;5.75;1.48;;;;;;;13.13;65.03;98579.25;5055041;28;20037;-90
2023/03/24 10:12:32;;;;;;;7.22;2.03;;;;;;;13.19;65.24;98580.75;5061838;28;20449;-85
2023/03/24 10:15:19;;;;;;;8.70;2.65;;;;;;;13.19;64.67;98575.25;5054270;28;20033;-90
2023/03/24 10:18:19;;;;;;;12.70;2.58;;;;;;;13.05;65.96;98599.94;5054360;28;20045;-88
2023/03/24 10:20:59;;;;;;;8.57;1.83;;;;;;;13.17;65.26;98584.91;5056437;28;20036;-88
2023/03/24 10:23:39;;;;;;;7.68;1.83;;;;;;;13.19;64.51;98588.94;5056589;28;20047;-88
2023/03/24 10:26:52;;;;;;;7.57;1.70;;;;;;;13.28;63.72;98596.41;5053476;28;20635;-87
2023/03/24 10:29:25;;;;;;;8.45;1.58;;;;;;;13.60;63.93;98594.53;5024237;28;20063;-89
2023/03/24 10:31:56;;;;;;;9.18;1.73;;;;;;;13.31;64.34;98602.06;5055850;28;20040;-87
2023/03/24 10:34:28;;;;;;;4.70;1.58;;;;;;;13.48;63.69;98594.28;5055286;28;20124;-89
2023/03/24 10:36:57;;;;;;;6.25;1.50;;;;;;;13.29;63.90;98600.75;5056048;28;20465;-85
2023/03/24 10:39:22;;;;;;;9.48;2.90;;;;;;;13.22;64.08;98605.88;5053660;28;20040;-85
2023/03/24 10:41:48;;;;;;;9.23;1.50;;;;;;;13.21;64.58;98598.75;5056651;28;20644;-88
2023/03/24 10:44:14;;;;;;;13.27;4.47;;;;;;;13.40;63.86;98602.09;5057648;28;20029;-85
2023/03/24 10:46:46;;;;;;;5.28;1.90;;;;;;;13.72;63.53;98606.84;5038099;28;20043;-86
2023/03/24 10:49:11;;;;;;;10.48;2.35;;;;;;;13.38;62.81;98596.13;5053394;28;20037;-87
2023/03/24 10:51:36;;;;;;;5.20;1.70;;;;;;;13.24;62.16;98603.63;5055989;28;20049;-86
2023/03/24 10:54:12;;;;;;;9.15;1.55;;;;;;;13.34;62.25;98617.06;5038970;28;20056;-86
2023/03/24 10:56:44;;;;;;;7.95;2.42;;;;;;;13.75;63.24;98600.75;5055969;28;20045;-88
2023/03/24 10:59:30;;;;;;;4.53;1.33;;;;;;;13.59;61.63;98592.91;5050314;28;20037;-84
2023/03/24 11:02:15;;;;;;;8.50;2.10;;;;;;;13.71;61.74;98597.81;5056206;28;20053;-84
2023/03/24 11:04:47;;;;;;;10.98;1.98;;;;;;;13.83;62.18;98602.69;5055147;28;20025;-87
2023/03/24 11:07:16;;;;;;;9.15;2.83;;;;;;;14.04;61.57;98596.66;5057591;28;20045;-85
2023/03/24 11:09:57;;;;;;;13.20;3.08;;;;;;;14.38;60.64;98597.06;5063872;28;20131;-87
2023/03/24 11:12:28;;;;;;;9.32;1.83;;;;;;;14.94;60.75;98610.25;5055771;28;20055;-89
2023/03/24 11:15:16;;;;;;;4.80;1.20;;;;;;;15.06;57.53;98606.06;5055818;28;20091;-86
2023/03/24 11:17:42;;;;;;;5.22;1.95;;;;;;;14.91;56.86;98616.38;5053498;28;20553;-85
2023/03/24 11:20:25;;;;;;;7.50;1.95;;;;;;;15.15;56.56;98608.81;5040103;28;20151;-85
2023/03/24 11:22:59;;;;;;;14.50;2.78;;;;;;;15.16;56.89;98600.25;5059388;28;20487;-86
2023/03/24 11:25:30;;;;;;;4.97;1.85;;;;;;;14.92;56.95;98615.25;5058559;28;20536;-86
2023/03/24 11:27:59;;;;;;;6.95;2.67;;;;;;;14.96;57.54;98607.19;5058024;28;20051;-85
2023/03/24 11:30:30;;;;;;;6.55;1.60;;;;;;;15.58;57.48;98609.06;5059827;28;20056;-84
2023/03/24 11:32:57;;;;;;;4.60;2.03;;;;;;;15.73;56.01;98602.22;5057015;28;20044;-86
2023/03/24 11:35:22;;;;;;;8.10;2.03;;;;;;;15.62;55.96;98602.56;5060437;28;20028;-85
2023/03/24 11:37:48;;;;;;;5.90;1.75;;;;;;;15.66;56.84;98608.25;5059394;28;20099;-83
2023/03/24 11:40:23;;;;;;;5.55;1.30;;;;;;;14.93;56.47;98605.06;5060968;28;20048;-87
2023/03/24 11:42:59;;;;;;;5.57;1.60;;;;;;;15.15;56.38;98598.63;5058924;28;20135;-85
2023/03/24 11:45:38;;;;;;;6.07;1.90;;;;;;;15.20;54.91;98611.38;5059327;28;20210;-84
2023/03/24 11:48:13;;;;;;;10.07;1.77;;;;;;;14.61;55.91;98618.09;5057339;28;20167;-90
2023/03/24 11:50:40;;;;;;;8.15;2.30;;;;;;;14.81;56.37;98622.97;5058580;28;20052;-88